createdAt,value
2023-03-03T00:00:25.309Z,50.40
2023-03-03T00:03:18.483Z,50.32
2023-03-03T00:05:53.247Z,50.27
2023-03-03T00:08:23.574Z,50.37
2023-03-03T00:10:55.937Z,50.52
2023-03-03T00:13:27.565Z,50.44
2023-03-03T00:16:13.558Z,50.56
2023-03-03T00:18:47.692Z,50.70
2023-03-03T00:21:42.301Z,50.64
2023-03-03T00:24:26.173Z,50.69
2023-03-03T00:27:02.307Z,51.09
2023-03-03T00:29:39.746Z,50.94
2023-03-03T00:32:15.484Z,51.14
2023-03-03T00:34:48.158Z,51.18
2023-03-03T00:37:36.224Z,51.04
2023-03-03T00:40:24.422Z,51.07
2023-03-03T00:43:00.154Z,51.16
2023-03-03T00:45:48.461Z,51.37
2023-03-03T00:48:49.196Z,51.36
2023-03-03T00:51:29.516Z,51.48
2023-03-03T00:54:01.528Z,51.59
2023-03-03T00:56:34.711Z,51.42
2023-03-03T00:59:08.043Z,51.66
2023-03-03T01:01:39.711Z,51.59
2023-03-03T01:04:10.107Z,51.46
2023-03-03T01:06:41.894Z,51.61
2023-03-03T01:09:12.204Z,51.60
2023-03-03T01:11:43.356Z,51.69
2023-03-03T01:14:16.202Z,51.87
2023-03-03T01:16:48.524Z,51.77
2023-03-03T01:19:22.140Z,51.87
2023-03-03T01:21:54.186Z,51.85
2023-03-03T01:24:24.796Z,52.02
2023-03-03T01:26:55.357Z,52.11
2023-03-03T01:29:28.556Z,52.09
2023-03-03T01:31:58.156Z,51.99
2023-03-03T01:34:28.752Z,52.04
2023-03-03T01:36:58.928Z,51.91
2023-03-03T01:39:29.293Z,52.08
2023-03-03T01:41:59.386Z,52.08
2023-03-03T01:44:28.329Z,52.15
2023-03-03T01:47:19.213Z,52.15
2023-03-03T01:49:53.430Z,52.17
2023-03-03T01:52:35.277Z,52.18
2023-03-03T01:55:11.818Z,52.29
2023-03-03T01:57:48.133Z,52.31
2023-03-03T02:00:18.326Z,52.36
2023-03-03T02:02:48.163Z,52.34
2023-03-03T02:05:18.645Z,52.52
2023-03-03T02:07:51.434Z,52.55
2023-03-03T02:10:21.989Z,52.62
2023-03-03T02:12:56.404Z,52.72
2023-03-03T02:15:36.366Z,52.80
2023-03-03T02:18:23.829Z,52.84
2023-03-03T02:21:05.327Z,52.86
2023-03-03T02:24:15.621Z,52.69
2023-03-03T02:26:48.036Z,52.87
2023-03-03T02:29:18.455Z,52.83
2023-03-03T02:31:49.339Z,52.63
2023-03-03T02:34:19.439Z,52.74
2023-03-03T02:36:51.176Z,52.91
2023-03-03T02:39:28.059Z,53.12
2023-03-03T02:42:11.264Z,53.16
2023-03-03T02:44:47.996Z,53.08
2023-03-03T02:47:18.068Z,53.13
2023-03-03T02:49:51.310Z,53.04
2023-03-03T02:52:22.554Z,53.32
2023-03-03T02:54:53.160Z,53.42
2023-03-03T02:57:24.214Z,53.15
2023-03-03T02:59:54.971Z,53.26
2023-03-03T03:02:25.956Z,53.23
2023-03-03T03:04:55.802Z,53.31
2023-03-03T03:07:27.947Z,53.22
2023-03-03T03:09:58.309Z,53.47
2023-03-03T03:12:27.822Z,53.63
2023-03-03T03:14:59.140Z,53.50
2023-03-03T03:17:31.135Z,53.47
2023-03-03T03:20:03.774Z,53.67
2023-03-03T03:22:36.780Z,53.55
2023-03-03T03:25:07.036Z,53.64
2023-03-03T03:27:38.008Z,53.74
2023-03-03T03:30:14.619Z,53.81
2023-03-03T03:32:46.374Z,53.95
2023-03-03T03:35:19.652Z,54.02
2023-03-03T03:37:50.128Z,54.29
2023-03-03T03:40:19.840Z,54.34
2023-03-03T03:42:48.966Z,54.54
2023-03-03T03:45:19.582Z,54.52
2023-03-03T03:47:51.742Z,54.59
2023-03-03T03:50:22.498Z,54.79
2023-03-03T03:52:55.032Z,54.98
2023-03-03T03:55:25.774Z,54.84
2023-03-03T03:57:56.800Z,54.64
2023-03-03T04:00:27.582Z,54.86
2023-03-03T04:02:59.759Z,55.37
2023-03-03T04:05:30.656Z,54.99
2023-03-03T04:07:59.848Z,54.98
2023-03-03T04:10:30.366Z,54.99
2023-03-03T04:12:59.827Z,55.31
2023-03-03T04:15:29.870Z,55.11
2023-03-03T04:17:59.321Z,54.86
2023-03-03T04:20:30.451Z,55.19
2023-03-03T04:23:00.854Z,55.16
2023-03-03T04:25:36.320Z,55.24
2023-03-03T04:28:14.306Z,55.36
2023-03-03T04:30:48.332Z,55.46
2023-03-03T04:33:20.357Z,55.51
2023-03-03T04:35:51.664Z,55.53
2023-03-03T04:38:24.762Z,55.20
2023-03-03T04:40:56.581Z,55.38
2023-03-03T04:43:27.220Z,55.51
2023-03-03T04:46:01.389Z,55.52
2023-03-03T04:48:32.572Z,55.68
2023-03-03T04:51:03.451Z,55.71
2023-03-03T04:53:38.788Z,55.43
2023-03-03T04:56:09.199Z,55.78
2023-03-03T04:58:41.721Z,55.71
2023-03-03T05:01:14.969Z,55.91
2023-03-03T05:03:45.320Z,56.17
2023-03-03T05:06:14.381Z,56.04
2023-03-03T05:08:46.290Z,56.09
2023-03-03T05:11:16.544Z,56.29
2023-03-03T05:13:48.208Z,56.29
2023-03-03T05:16:19.947Z,56.40
2023-03-03T05:18:50.820Z,56.45
2023-03-03T05:21:21.271Z,56.48
2023-03-03T05:23:53.022Z,56.50
2023-03-03T05:26:23.443Z,56.52
2023-03-03T05:28:54.731Z,56.72
2023-03-03T05:31:27.623Z,57.48
2023-03-03T05:33:57.159Z,57.80
2023-03-03T05:36:29.164Z,57.82
2023-03-03T05:38:59.021Z,57.53
2023-03-03T05:41:31.139Z,57.60
2023-03-03T05:44:01.148Z,57.68
2023-03-03T05:46:33.442Z,57.51
2023-03-03T05:49:02.734Z,57.41
2023-03-03T05:51:33.637Z,57.52
2023-03-03T05:54:04.055Z,57.42
2023-03-03T05:56:35.285Z,57.99
2023-03-03T05:59:06.036Z,57.99
2023-03-03T06:01:37.611Z,57.56
2023-03-03T06:04:07.683Z,57.62
2023-03-03T06:06:40.315Z,57.64
2023-03-03T06:09:12.437Z,57.61
2023-03-03T06:11:45.180Z,57.75
2023-03-03T06:14:18.925Z,58.18
2023-03-03T06:16:50.835Z,58.24
2023-03-03T06:19:23.774Z,58.11
2023-03-03T06:21:56.064Z,57.95
2023-03-03T06:24:30.618Z,57.84
2023-03-03T06:27:02.331Z,57.86
2023-03-03T06:29:33.555Z,57.83
2023-03-03T06:32:06.260Z,57.64
2023-03-03T06:34:39.059Z,57.85
2023-03-03T06:37:08.587Z,57.63
2023-03-03T06:39:40.138Z,57.53
2023-03-03T06:42:10.749Z,57.68
2023-03-03T06:44:43.296Z,57.78
2023-03-03T06:47:13.932Z,57.28
2023-03-03T06:49:44.801Z,57.25
2023-03-03T06:52:27.606Z,57.63
2023-03-03T06:55:01.710Z,57.54
2023-03-03T06:57:34.445Z,57.29
2023-03-03T07:00:25.160Z,57.45
2023-03-03T07:03:18.443Z,57.43
2023-03-03T07:05:54.244Z,57.42
2023-03-03T07:08:32.701Z,57.19
2023-03-03T07:11:10.820Z,57.48
2023-03-03T07:13:47.080Z,57.42
2023-03-03T07:16:18.455Z,57.59
2023-03-03T07:18:55.911Z,57.40
2023-03-03T07:21:35.818Z,57.33
2023-03-03T07:24:20.487Z,57.45
2023-03-03T07:26:50.471Z,57.30
2023-03-03T07:29:27.407Z,57.65
2023-03-03T07:31:59.544Z,57.39
2023-03-03T07:34:44.724Z,57.42
2023-03-03T07:37:32.289Z,58.07
2023-03-03T07:40:23.735Z,57.98
2023-03-03T07:42:54.713Z,57.90
2023-03-03T07:45:39.246Z,57.92
2023-03-03T07:48:41.656Z,57.74
2023-03-03T07:51:28.505Z,58.02
2023-03-03T07:54:19.201Z,57.61
2023-03-03T07:56:51.563Z,57.93
2023-03-03T07:59:28.714Z,57.53
2023-03-03T08:02:02.113Z,57.75
2023-03-03T08:04:34.177Z,57.86
2023-03-03T08:07:05.934Z,57.66
2023-03-03T08:09:47.390Z,57.89
2023-03-03T08:12:42.298Z,57.79
2023-03-03T08:15:30.433Z,57.75
2023-03-03T08:18:02.689Z,58.08
2023-03-03T08:20:57.529Z,57.96
2023-03-03T08:23:28.345Z,57.90
2023-03-03T08:28:45.873Z,57.56
2023-03-03T08:31:40.199Z,57.85
2023-03-03T08:34:16.295Z,57.44
2023-03-03T08:36:49.523Z,57.71
2023-03-03T08:39:20.116Z,57.90
2023-03-03T08:41:53.741Z,57.79
2023-03-03T08:44:25.281Z,57.34
2023-03-03T08:46:59.844Z,57.50
2023-03-03T08:49:33.534Z,57.98
2023-03-03T08:52:03.156Z,57.94
2023-03-03T08:54:43.633Z,57.94
2023-03-03T08:57:15.644Z,57.99
2023-03-03T08:59:51.874Z,58.04
2023-03-03T09:02:32.671Z,57.89
2023-03-03T09:05:05.368Z,58.58
2023-03-03T09:08:25.778Z,58.17
2023-03-03T09:11:55.817Z,58.35
2023-03-03T09:19:19.453Z,59.02
2023-03-03T09:22:09.771Z,58.89
2023-03-03T09:24:49.408Z,59.18
2023-03-03T09:27:23.215Z,59.19
2023-03-03T09:29:57.119Z,59.25
2023-03-03T09:32:38.240Z,59.11
2023-03-03T09:35:38.191Z,59.58
2023-03-03T09:38:38.163Z,59.32
2023-03-03T09:41:26.411Z,59.06
2023-03-03T09:44:23.183Z,59.46
2023-03-03T09:47:42.234Z,59.68
2023-03-03T09:50:37.288Z,59.61
2023-03-03T09:53:52.264Z,59.83
2023-03-03T10:00:03.873Z,59.70
2023-03-03T10:09:50.339Z,59.93
2023-03-03T10:32:13.828Z,60.00
2023-03-03T10:35:02.340Z,60.57
2023-03-03T10:38:15.094Z,60.32
2023-03-03T10:41:05.158Z,60.49
2023-03-03T10:44:32.009Z,60.80
2023-03-03T10:47:10.223Z,60.53
2023-03-03T10:52:34.315Z,60.54
2023-03-03T10:55:32.745Z,60.51
2023-03-03T10:58:31.520Z,60.52
2023-03-03T11:01:09.393Z,60.77
2023-03-03T11:04:17.765Z,60.83
2023-03-03T11:06:48.928Z,60.67
2023-03-03T11:09:38.370Z,60.77
2023-03-03T11:12:29.107Z,61.42
2023-03-03T11:15:27.949Z,61.37
2023-03-03T11:18:25.883Z,61.33
2023-03-03T11:21:34.985Z,61.34
2023-03-03T11:25:05.433Z,61.74
2023-03-03T11:28:30.565Z,61.60
2023-03-03T11:34:30.278Z,61.54
2023-03-03T11:37:09.086Z,61.70
2023-03-03T11:39:42.483Z,61.58
2023-03-03T11:42:34.599Z,61.76
2023-03-03T11:45:21.066Z,61.62
2023-03-03T11:48:07.103Z,61.30
2023-03-03T11:50:39.346Z,61.41
2023-03-03T11:53:25.212Z,61.25
2023-03-03T11:56:04.734Z,61.21
2023-03-03T11:58:46.449Z,61.17
2023-03-03T12:01:50.813Z,61.37
2023-03-03T12:04:48.076Z,61.29
2023-03-03T12:07:33.877Z,61.47
2023-03-03T12:10:49.995Z,61.08
2023-03-03T12:50:10.797Z,61.51
2023-03-03T12:52:57.666Z,61.70
2023-03-03T12:55:43.021Z,62.05
2023-03-03T12:58:33.273Z,61.74
2023-03-03T13:01:44.581Z,62.02
2023-03-03T13:04:16.336Z,62.04
2023-03-03T13:07:07.204Z,61.87
2023-03-03T13:09:54.004Z,61.69
2023-03-03T13:12:45.908Z,61.53
2023-03-03T13:15:31.509Z,61.40
2023-03-03T13:18:20.494Z,61.66
2023-03-03T13:20:59.877Z,61.28
2023-03-03T13:23:38.719Z,61.49
2023-03-03T13:26:24.828Z,61.27
2023-03-03T13:29:05.820Z,61.64
2023-03-03T13:31:42.391Z,61.53
2023-03-03T13:34:24.048Z,61.86
2023-03-03T13:37:09.023Z,61.49
2023-03-03T13:39:52.136Z,61.53
2023-03-03T13:42:31.464Z,61.61
2023-03-03T13:45:07.604Z,62.03
2023-03-03T13:48:23.107Z,61.91
2023-03-03T13:51:06.510Z,61.80
2023-03-03T13:53:44.894Z,61.84
2023-03-03T13:57:00.740Z,61.92
2023-03-03T14:00:02.248Z,62.09
2023-03-03T14:03:11.585Z,62.17
2023-03-03T14:06:15.108Z,61.59
2023-03-03T14:09:08.822Z,61.83
2023-03-03T14:11:56.492Z,61.85
2023-03-03T14:14:32.763Z,61.87
2023-03-03T14:17:30.697Z,61.59
2023-03-03T14:20:46.310Z,61.76
2023-03-03T14:23:23.916Z,62.01
2023-03-03T14:25:59.274Z,62.25
2023-03-03T14:28:30.173Z,62.11
2023-03-03T14:31:17.752Z,62.14
2023-03-03T14:34:38.878Z,62.02
2023-03-03T14:37:30.347Z,62.14
2023-03-03T14:40:09.618Z,62.40
2023-03-03T14:42:51.071Z,62.52
2023-03-03T14:45:33.453Z,62.12
2023-03-03T14:48:18.925Z,62.35
2023-03-03T14:51:05.412Z,62.41
2023-03-03T14:53:43.633Z,62.42
2023-03-03T14:56:36.301Z,62.55
2023-03-03T14:59:19.761Z,62.39
2023-03-03T15:02:11.028Z,62.69
2023-03-03T15:04:41.292Z,62.47
2023-03-03T15:07:32.018Z,62.50
2023-03-03T15:10:04.117Z,62.69
2023-03-03T15:12:33.795Z,62.94
2023-03-03T15:15:07.702Z,63.08
2023-03-03T15:17:50.477Z,62.93
2023-03-03T15:21:00.838Z,63.15
2023-03-03T15:24:00.388Z,63.45
2023-03-03T15:30:52.442Z,63.38
2023-03-03T15:34:42.801Z,63.31
2023-03-03T15:37:54.404Z,63.26
2023-03-03T15:40:30.767Z,63.82
2023-03-03T15:43:40.541Z,64.03
2023-03-03T16:18:28.754Z,64.05
2023-03-03T16:21:24.279Z,63.95
2023-03-03T16:24:49.813Z,64.42
2023-03-03T16:28:06.802Z,64.06
2023-03-03T16:31:04.667Z,63.96
2023-03-03T16:34:28.870Z,64.17
2023-03-03T16:44:17.481Z,64.50
2023-03-03T17:01:15.919Z,64.45
2023-03-03T17:04:16.506Z,64.65
2023-03-03T17:07:46.389Z,65.01
2023-03-03T17:15:30.311Z,65.86
2023-03-03T17:18:30.674Z,65.62
2023-03-03T17:22:01.218Z,65.45
2023-03-03T17:25:39.338Z,65.65
2023-03-03T17:29:06.875Z,65.95
2023-03-03T17:32:49.862Z,65.99
2023-03-03T17:35:40.821Z,66.28
2023-03-03T17:38:39.235Z,66.25
2023-03-03T17:41:19.707Z,66.10
2023-03-03T17:43:52.045Z,66.17
2023-03-03T17:46:46.020Z,66.38
2023-03-03T17:49:45.783Z,66.08
2023-03-03T17:53:02.591Z,66.15
2023-03-03T17:56:12.364Z,66.14
2023-03-03T17:59:04.326Z,66.41
2023-03-03T18:01:46.707Z,66.52
2023-03-03T18:04:42.653Z,66.50
2023-03-03T18:16:36.095Z,66.84
2023-03-03T18:22:47.029Z,67.16
2023-03-03T18:25:21.518Z,67.14
2023-03-03T18:37:00.236Z,67.36
2023-03-03T18:39:52.475Z,67.39
2023-03-03T18:42:42.993Z,67.30
2023-03-03T18:45:21.066Z,67.48
2023-03-03T18:48:13.506Z,67.56
2023-03-03T18:50:51.536Z,67.90
2023-03-03T18:53:27.506Z,67.82
2023-03-03T18:56:10.660Z,68.08
2023-03-03T18:58:44.808Z,68.12
2023-03-03T19:01:36.425Z,68.03
2023-03-03T19:04:13.933Z,68.13
2023-03-03T19:06:50.039Z,68.12
2023-03-03T19:09:39.916Z,68.08
2023-03-03T19:12:14.244Z,68.14
2023-03-03T19:14:47.155Z,68.23
2023-03-03T19:17:24.447Z,68.35
2023-03-03T19:20:16.052Z,68.55
2023-03-03T19:23:13.891Z,68.26
2023-03-03T19:25:45.410Z,67.96
2023-03-03T19:28:24.597Z,68.26
2023-03-03T19:31:35.733Z,68.43
2023-03-03T19:34:17.829Z,68.46
2023-03-03T19:37:10.756Z,68.26
2023-03-03T19:40:01.532Z,68.38
2023-03-03T19:42:56.877Z,68.66
2023-03-03T19:45:54.889Z,68.71
2023-03-03T19:48:52.338Z,68.48
2023-03-03T19:51:33.444Z,68.68
2023-03-03T19:54:44.789Z,68.70
2023-03-03T19:57:44.019Z,68.63
2023-03-03T20:00:40.113Z,68.75
2023-03-03T20:03:34.624Z,68.87
2023-03-03T20:06:50.308Z,68.86
2023-03-03T20:09:33.268Z,69.33
2023-03-03T20:12:32.114Z,69.30
2023-03-03T20:15:33.309Z,69.26
2023-03-03T20:18:24.289Z,69.15
2023-03-03T20:21:35.078Z,69.77
2023-03-03T20:24:46.393Z,69.26
2023-03-03T20:27:35.503Z,69.38
2023-03-03T20:30:23.749Z,69.52
2023-03-03T20:33:31.672Z,69.51
2023-03-03T20:36:39.204Z,69.72
2023-03-03T20:39:17.918Z,69.85
2023-03-03T20:42:17.273Z,69.53
2023-03-03T20:45:10.103Z,69.87
2023-03-03T20:48:07.366Z,70.46
2023-03-03T20:50:57.683Z,69.92
2023-03-03T20:54:03.270Z,69.87
2023-03-03T20:56:58.227Z,69.76
2023-03-03T21:00:05.071Z,69.94
2023-03-03T21:02:53.339Z,70.13
2023-03-03T21:05:29.055Z,70.11
2023-03-03T21:08:08.281Z,69.93
2023-03-03T21:10:42.701Z,70.25
2023-03-03T21:13:41.758Z,70.23
2023-03-03T21:16:25.802Z,70.56
2023-03-03T21:19:07.931Z,70.57
2023-03-03T21:21:45.674Z,70.30
2023-03-03T21:24:19.606Z,70.29
2023-03-03T21:26:58.657Z,70.64
2023-03-03T21:29:30.337Z,70.34
2023-03-03T21:32:05.773Z,70.33
2023-03-03T21:34:35.882Z,70.73
2023-03-03T21:37:08.506Z,70.60
2023-03-03T21:39:42.128Z,70.51
2023-03-03T21:42:16.466Z,70.81
2023-03-03T21:44:53.178Z,70.41
2023-03-03T21:47:28.955Z,71.16
2023-03-03T21:50:00.587Z,70.75
2023-03-03T21:52:33.022Z,70.47
2023-03-03T21:55:03.120Z,71.60
2023-03-03T21:57:35.120Z,71.30
2023-03-03T22:00:07.292Z,71.78
2023-03-03T22:02:36.335Z,71.40
2023-03-03T22:05:07.321Z,71.41
2023-03-03T22:07:39.356Z,71.55
2023-03-03T22:10:09.588Z,71.36
2023-03-03T22:12:38.488Z,71.58
2023-03-03T22:15:08.555Z,72.13
2023-03-03T22:17:39.733Z,72.00
2023-03-03T22:20:10.581Z,71.96
2023-03-03T22:22:41.531Z,71.62
2023-03-03T22:25:11.589Z,71.83
2023-03-03T22:27:40.274Z,71.43
2023-03-03T22:30:14.685Z,71.33
2023-03-03T22:32:46.194Z,71.62
2023-03-03T22:35:15.193Z,71.66
2023-03-03T22:37:46.620Z,71.97
2023-03-03T22:40:16.164Z,71.41
2023-03-03T22:42:46.283Z,72.06
2023-03-03T22:45:17.231Z,71.96
2023-03-03T22:47:48.273Z,71.68
2023-03-03T22:50:18.109Z,71.72
2023-03-03T22:52:47.715Z,71.69
2023-03-03T22:55:18.032Z,71.89
2023-03-03T22:57:47.898Z,71.70
2023-03-03T23:00:21.354Z,71.10
2023-03-03T23:02:49.797Z,70.97
2023-03-03T23:05:22.577Z,71.61
2023-03-03T23:07:52.054Z,71.64
2023-03-03T23:10:21.268Z,71.73
2023-03-03T23:12:49.416Z,71.56
2023-03-03T23:15:18.347Z,71.43
2023-03-03T23:17:48.448Z,71.10
2023-03-03T23:20:21.186Z,71.25
2023-03-03T23:22:51.379Z,71.19
2023-03-03T23:25:22.772Z,71.34
2023-03-03T23:27:53.048Z,71.59
2023-03-03T23:30:50.548Z,71.07
2023-03-03T23:33:21.993Z,71.18
2023-03-03T23:35:53.199Z,71.18
2023-03-03T23:38:23.570Z,71.54
2023-03-03T23:40:55.796Z,71.35
2023-03-03T23:43:26.225Z,71.76
2023-03-03T23:45:55.766Z,71.91
2023-03-03T23:48:25.552Z,72.00
2023-03-03T23:50:54.278Z,71.96
2023-03-03T23:53:23.503Z,71.67
2023-03-03T23:55:54.247Z,71.97
2023-03-03T23:58:24.542Z,71.64
